Time;durP1;ratioP1;P1;durP2;ratioP2;P2;SDS_P1;SDS_P2;PMS_P1;PMS_P2;Temp;Humidity;BMP_temperature;BMP_pressure;BME280_temperature;BME280_humidity;BME280_pressure;Samples;Min_cycle;Max_cycle;Signal;HPM_P1;HPM_P2
2022/04/26 03:36:13;;;;;;;12.00;7.35;;;;;;;;;;4991128;28;20037;-64
2022/04/26 03:38:45;;;;;;;12.77;8.25;;;;;;;;;;4991362;28;20023;-64
2022/04/26 03:41:11;;;;;;;13.15;7.80;;;;;;;;;;4991353;28;20468;-64
2022/04/26 03:43:37;;;;;;;11.40;7.20;;;;;;;;;;4991256;28;20045;-64
2022/04/26 03:46:03;;;;;;;12.45;7.72;;;;;;;;;;4991099;28;20038;-64
2022/04/26 03:48:30;;;;;;;12.88;7.30;;;;;;;;;;4991084;28;20109;-64
2022/04/26 03:50:56;;;;;;;14.75;7.90;;;;;;;;;;4991075;28;20393;-64
2022/04/26 03:53:22;;;;;;;12.70;7.82;;;;;;;;;;4990919;28;20031;-64
2022/04/26 03:55:48;;;;;;;12.57;7.82;;;;;;;;;;4973608;28;20015;-64
2022/04/26 03:58:15;;;;;;;14.85;8.82;;;;;;;;;;4987404;28;20041;-64
2022/04/26 04:00:41;;;;;;;13.68;8.48;;;;;;;;;;4991090;28;20058;-64
2022/04/26 04:03:07;;;;;;;15.13;7.85;;;;;;;;;;4990654;28;20113;-64
2022/04/26 04:05:34;;;;;;;11.98;8.10;;;;;;;;;;4982710;28;20031;-64
2022/04/26 04:08:01;;;;;;;14.52;8.15;;;;;;;;;;4984295;28;20041;-64
2022/04/26 04:10:27;;;;;;;11.15;7.80;;;;;;;;;;4983559;28;20038;-64
2022/04/26 04:12:53;;;;;;;14.85;8.30;;;;;;;;;;4971146;28;20089;-64
2022/04/26 04:15:20;;;;;;;16.67;8.73;;;;;;;;;;4971050;28;20031;-64
2022/04/26 04:17:46;;;;;;;16.42;8.35;;;;;;;;;;4984534;28;20551;-64
2022/04/26 04:20:14;;;;;;;13.30;7.80;;;;;;;;;;5001893;28;20034;-64
2022/04/26 04:22:40;;;;;;;15.70;8.57;;;;;;;;;;5057398;28;20500;-64
2022/04/26 04:25:06;;;;;;;11.30;7.80;;;;;;;;;;4970544;28;20070;-64
2022/04/26 04:27:32;;;;;;;12.60;7.75;;;;;;;;;;4980917;28;20034;-64
2022/04/26 04:30:02;;;;;;;9.52;6.70;;;;;;;;;;4975293;28;20035;-64
2022/04/26 04:32:32;;;;;;;13.07;8.35;;;;;;;;;;4987781;28;20041;-64
2022/04/26 04:34:58;;;;;;;13.88;7.68;;;;;;;;;;4983679;28;20026;-64
2022/04/26 04:37:24;;;;;;;16.13;8.15;;;;;;;;;;4970578;28;20031;-64
2022/04/26 04:39:51;;;;;;;13.27;8.75;;;;;;;;;;4989272;28;20031;-64
2022/04/26 04:42:17;;;;;;;13.23;9.05;;;;;;;;;;4988298;28;20488;-64
2022/04/26 04:44:43;;;;;;;15.90;8.27;;;;;;;;;;4970545;28;20403;-64
2022/04/26 04:47:09;;;;;;;14.50;7.72;;;;;;;;;;4970522;28;20031;-64
2022/04/26 04:49:35;;;;;;;13.80;8.35;;;;;;;;;;4970349;28;20039;-64
2022/04/26 04:52:02;;;;;;;14.52;8.45;;;;;;;;;;5000031;28;20046;-64
2022/04/26 04:54:28;;;;;;;16.15;7.93;;;;;;;;;;4975318;28;20027;-64
2022/04/26 04:56:54;;;;;;;10.60;7.78;;;;;;;;;;4981550;28;20051;-64
2022/04/26 04:59:20;;;;;;;14.77;7.90;;;;;;;;;;4977756;28;20442;-64
2022/04/26 05:01:46;;;;;;;15.48;8.02;;;;;;;;;;5044625;28;20038;-64
2022/04/26 05:04:13;;;;;;;13.57;7.53;;;;;;;;;;4980904;28;20449;-64
2022/04/26 05:06:39;;;;;;;11.77;6.88;;;;;;;;;;4984428;28;20109;-64
2022/04/26 05:09:05;;;;;;;11.52;7.60;;;;;;;;;;4973072;28;20049;-64
2022/04/26 05:11:31;;;;;;;18.30;8.13;;;;;;;;;;4972008;28;20038;-64
2022/04/26 05:13:57;;;;;;;13.90;7.57;;;;;;;;;;4981060;28;20019;-64
2022/04/26 05:16:24;;;;;;;12.63;7.60;;;;;;;;;;4985643;28;20486;-64
2022/04/26 05:18:50;;;;;;;12.38;7.90;;;;;;;;;;4984770;28;20432;-64
2022/04/26 05:21:16;;;;;;;18.30;8.50;;;;;;;;;;4977136;28;20058;-64
2022/04/26 05:26:27;;;;;;;15.95;7.93;;;;;;;;;;4994029;28;20118;-64
2022/04/26 05:28:53;;;;;;;15.48;8.30;;;;;;;;;;4988602;28;20041;-65
2022/04/26 05:31:20;;;;;;;15.77;7.90;;;;;;;;;;4982064;28;20031;-65
2022/04/26 05:33:47;;;;;;;15.20;9.05;;;;;;;;;;4987273;28;20027;-68
2022/04/26 05:36:13;;;;;;;12.90;7.97;;;;;;;;;;4976054;28;20757;-65
2022/04/26 05:38:40;;;;;;;17.15;8.45;;;;;;;;;;4980232;28;20389;-65
2022/04/26 05:41:06;;;;;;;11.77;7.72;;;;;;;;;;4975447;28;20474;-65
2022/04/26 05:43:33;;;;;;;13.10;7.40;;;;;;;;;;4978033;28;20033;-65
2022/04/26 05:45:59;;;;;;;11.88;7.75;;;;;;;;;;4979408;28;20035;-65
2022/04/26 05:48:25;;;;;;;12.05;7.78;;;;;;;;;;4978986;28;20456;-65
2022/04/26 05:50:52;;;;;;;12.30;7.75;;;;;;;;;;4976216;28;20023;-65
2022/04/26 05:53:18;;;;;;;24.67;9.88;;;;;;;;;;4969112;28;20027;-65
2022/04/26 05:55:44;;;;;;;15.23;9.07;;;;;;;;;;4990077;28;20035;-65
2022/04/26 05:58:10;;;;;;;14.88;7.72;;;;;;;;;;4993040;28;20042;-65
2022/04/26 06:00:37;;;;;;;18.08;9.93;;;;;;;;;;4973177;28;20110;-65
2022/04/26 06:03:03;;;;;;;22.23;9.73;;;;;;;;;;4980409;28;20022;-65
2022/04/26 06:05:29;;;;;;;17.42;10.07;;;;;;;;;;4974041;28;20412;-65
2022/04/26 06:07:55;;;;;;;19.23;9.43;;;;;;;;;;4973600;28;20057;-65
2022/04/26 06:10:22;;;;;;;16.80;9.18;;;;;;;;;;4970775;28;20122;-65
2022/04/26 06:12:48;;;;;;;24.88;10.52;;;;;;;;;;4983179;28;20507;-65
2022/04/26 06:15:17;;;;;;;19.23;10.40;;;;;;;;;;4973734;28;20084;-65
2022/04/26 06:17:44;;;;;;;19.25;10.65;;;;;;;;;;4972883;28;20113;-65
2022/04/26 06:20:10;;;;;;;18.17;10.20;;;;;;;;;;4978391;28;20031;-65
2022/04/26 06:22:36;;;;;;;22.42;11.18;;;;;;;;;;4978750;28;20378;-65
2022/04/26 06:25:03;;;;;;;23.75;11.13;;;;;;;;;;4968395;28;20038;-65
2022/04/26 06:27:29;;;;;;;23.63;11.75;;;;;;;;;;4972080;28;20444;-65
2022/04/26 06:29:55;;;;;;;16.88;11.20;;;;;;;;;;4977361;28;20026;-65
2022/04/26 06:32:21;;;;;;;21.95;11.93;;;;;;;;;;4982223;28;20058;-65
2022/04/26 06:34:48;;;;;;;21.27;12.18;;;;;;;;;;4978619;28;20019;-65
2022/04/26 06:37:14;;;;;;;24.25;12.10;;;;;;;;;;4983267;28;20548;-65
2022/04/26 06:39:40;;;;;;;19.13;11.90;;;;;;;;;;4976711;28;20091;-65
2022/04/26 06:42:07;;;;;;;21.50;12.77;;;;;;;;;;4980673;28;20022;-65
2022/04/26 06:44:33;;;;;;;18.35;11.95;;;;;;;;;;4975549;28;20042;-65
2022/04/26 06:46:59;;;;;;;22.98;12.98;;;;;;;;;;4981063;28;20039;-65
2022/04/26 06:49:25;;;;;;;28.08;12.32;;;;;;;;;;4977374;28;20041;-65
2022/04/26 06:51:51;;;;;;;22.42;11.65;;;;;;;;;;4979965;28;20018;-65
2022/04/26 06:54:17;;;;;;;27.13;12.52;;;;;;;;;;4977439;28;20033;-65
2022/04/26 06:56:46;;;;;;;27.40;12.27;;;;;;;;;;4984815;28;20092;-65
2022/04/26 06:59:13;;;;;;;23.63;13.13;;;;;;;;;;4978715;28;20059;-63
2022/04/26 07:01:39;;;;;;;25.48;13.75;;;;;;;;;;4981736;28;20027;-66
2022/04/26 07:04:06;;;;;;;20.25;12.45;;;;;;;;;;4982853;28;20030;-66
2022/04/26 07:06:32;;;;;;;22.58;11.80;;;;;;;;;;4975462;28;20034;-66
2022/04/26 07:08:59;;;;;;;22.02;11.93;;;;;;;;;;4980597;28;20038;-66
2022/04/26 07:11:25;;;;;;;29.25;12.80;;;;;;;;;;4986027;28;20030;-66
2022/04/26 07:13:52;;;;;;;19.55;11.75;;;;;;;;;;4978895;28;20026;-66
2022/04/26 07:16:19;;;;;;;25.73;13.52;;;;;;;;;;4982768;28;20514;-66
2022/04/26 07:18:45;;;;;;;22.98;12.52;;;;;;;;;;4980705;28;20066;-66
2022/04/26 07:21:11;;;;;;;30.05;14.82;;;;;;;;;;4981488;28;20027;-66
2022/04/26 07:23:37;;;;;;;32.35;12.50;;;;;;;;;;4985455;28;20031;-66
2022/04/26 07:26:03;;;;;;;25.02;12.38;;;;;;;;;;4977536;28;20037;-66
2022/04/26 07:28:29;;;;;;;23.05;11.73;;;;;;;;;;4978440;28;20060;-66
2022/04/26 07:30:55;;;;;;;28.88;13.07;;;;;;;;;;4980077;28;20026;-65
2022/04/26 07:36:07;;;;;;;27.90;13.77;;;;;;;;;;4978510;28;20066;-65
2022/04/26 07:38:33;;;;;;;25.63;15.35;;;;;;;;;;4977947;28;20015;-65
2022/04/26 07:40:59;;;;;;;26.38;13.98;;;;;;;;;;4978807;28;20508;-65
2022/04/26 07:43:25;;;;;;;23.95;14.48;;;;;;;;;;4979477;28;20027;-66
2022/04/26 07:45:51;;;;;;;25.20;14.50;;;;;;;;;;4977119;28;21188;-66
2022/04/26 07:48:18;;;;;;;26.73;14.45;;;;;;;;;;4979988;28;20041;-66
2022/04/26 07:50:45;;;;;;;26.17;14.63;;;;;;;;;;4981185;28;20023;-66
2022/04/26 07:53:11;;;;;;;27.30;14.80;;;;;;;;;;4977062;28;20381;-66
2022/04/26 07:55:38;;;;;;;31.55;15.68;;;;;;;;;;4976286;28;20031;-65
2022/04/26 07:58:04;;;;;;;32.75;15.93;;;;;;;;;;4979880;28;20444;-65
2022/04/26 08:00:31;;;;;;;33.25;15.35;;;;;;;;;;4979705;28;20030;-65
2022/04/26 08:02:57;;;;;;;35.28;17.35;;;;;;;;;;4976292;28;20137;-65
2022/04/26 08:05:24;;;;;;;30.00;16.25;;;;;;;;;;4977384;28;20105;-65
2022/04/26 08:07:50;;;;;;;30.05;16.42;;;;;;;;;;4976976;28;20026;-65
2022/04/26 08:10:16;;;;;;;29.20;15.52;;;;;;;;;;4980465;28;20022;-65
2022/04/26 08:12:43;;;;;;;26.50;15.63;;;;;;;;;;4982133;28;20022;-65
2022/04/26 08:15:14;;;;;;;30.88;13.75;;;;;;;;;;4977868;28;20091;-65
2022/04/26 08:17:41;;;;;;;26.88;13.05;;;;;;;;;;4975973;28;20039;-65
2022/04/26 08:20:10;;;;;;;23.20;13.35;;;;;;;;;;4979759;28;20073;-65
2022/04/26 08:22:37;;;;;;;22.60;11.73;;;;;;;;;;4976946;28;20023;-65
2022/04/26 08:27:48;;;;;;;20.88;12.35;;;;;;;;;;4970914;28;20062;-65
2022/04/26 08:30:14;;;;;;;29.50;12.02;;;;;;;;;;4980865;28;20038;-65
2022/04/26 08:32:46;;;;;;;18.30;9.65;;;;;;;;;;4978744;28;20041;-65
2022/04/26 08:35:13;;;;;;;13.57;7.90;;;;;;;;;;4977063;28;20096;-65
2022/04/26 08:37:39;;;;;;;16.20;8.00;;;;;;;;;;4974146;28;20139;-65
2022/04/26 08:40:07;;;;;;;23.75;9.82;;;;;;;;;;4980569;28;20508;-65
2022/04/26 08:42:37;;;;;;;19.25;8.13;;;;;;;;;;4976469;28;20439;-65
2022/04/26 08:45:05;;;;;;;14.88;7.88;;;;;;;;;;4980109;28;20061;-65
2022/04/26 08:53:01;;;;;;;21.58;8.40;;;;;;;;;;4975409;28;20069;-66
2022/04/26 08:55:27;;;;;;;20.08;9.57;;;;;;;;;;4974466;28;20033;-66
2022/04/26 08:57:54;;;;;;;25.30;8.32;;;;;;;;;;4974241;28;20538;-66
2022/04/26 09:00:20;;;;;;;17.38;7.35;;;;;;;;;;4967782;28;20027;-66
2022/04/26 09:03:00;;;;;;;17.50;7.32;;;;;;;;;;4972224;28;20517;-66
2022/04/26 09:05:26;;;;;;;18.30;8.57;;;;;;;;;;4979324;28;20031;-66
2022/04/26 09:07:52;;;;;;;20.48;8.77;;;;;;;;;;4980877;28;20023;-66
2022/04/26 09:10:19;;;;;;;14.90;7.88;;;;;;;;;;4976657;28;20037;-66
2022/04/26 09:13:01;;;;;;;14.82;6.85;;;;;;;;;;4979851;28;20027;-66
2022/04/26 09:15:43;;;;;;;15.48;6.35;;;;;;;;;;4976828;28;20573;-66
2022/04/26 09:18:15;;;;;;;16.08;7.22;;;;;;;;;;4986273;28;20042;-66
2022/04/26 09:20:41;;;;;;;20.27;7.15;;;;;;;;;;4981714;28;20419;-66
2022/04/26 09:23:15;;;;;;;12.57;6.53;;;;;;;;;;4981544;28;20083;-66
2022/04/26 09:25:41;;;;;;;14.18;6.57;;;;;;;;;;4979282;28;20038;-66
2022/04/26 09:28:08;;;;;;;17.13;6.93;;;;;;;;;;4979547;28;20027;-66
2022/04/26 09:30:35;;;;;;;13.25;5.40;;;;;;;;;;4976623;28;20027;-66
2022/04/26 09:33:01;;;;;;;15.48;6.47;;;;;;;;;;4977648;28;20100;-66
2022/04/26 09:35:32;;;;;;;14.15;6.93;;;;;;;;;;4985996;28;20076;-66
2022/04/26 09:38:02;;;;;;;15.88;6.68;;;;;;;;;;4979356;28;20034;-66
2022/04/26 09:40:31;;;;;;;15.70;7.00;;;;;;;;;;4976139;28;20047;-66
2022/04/26 09:42:57;;;;;;;18.60;6.90;;;;;;;;;;4973634;28;20037;-66
2022/04/26 09:45:25;;;;;;;19.65;6.70;;;;;;;;;;4975744;28;20092;-66
2022/04/26 09:47:57;;;;;;;14.20;6.32;;;;;;;;;;4971430;28;20450;-66
2022/04/26 09:50:23;;;;;;;14.20;5.50;;;;;;;;;;4975287;28;20074;-66
2022/04/26 09:52:49;;;;;;;15.52;5.22;;;;;;;;;;4972632;28;20084;-66
2022/04/26 09:55:15;;;;;;;14.25;5.63;;;;;;;;;;4972762;28;20030;-66
2022/04/26 09:57:43;;;;;;;14.38;5.88;;;;;;;;;;4973232;28;20529;-66
2022/04/26 10:00:10;;;;;;;9.40;5.35;;;;;;;;;;4970159;28;20058;-66
2022/04/26 10:02:37;;;;;;;14.55;5.88;;;;;;;;;;4979205;28;20030;-66
2022/04/26 10:05:05;;;;;;;9.98;5.32;;;;;;;;;;4979299;28;20059;-66
2022/04/26 10:07:40;;;;;;;16.90;6.45;;;;;;;;;;4982658;28;20022;-66
2022/04/26 10:10:06;;;;;;;11.35;5.40;;;;;;;;;;4974422;28;20031;-66
2022/04/26 10:12:33;;;;;;;12.95;5.32;;;;;;;;;;4981506;28;20073;-66
2022/04/26 10:15:01;;;;;;;12.73;4.70;;;;;;;;;;4978713;28;20109;-66
2022/04/26 10:17:30;;;;;;;15.07;4.90;;;;;;;;;;4984100;28;20114;-66
2022/04/26 10:19:56;;;;;;;10.38;5.22;;;;;;;;;;4971824;28;20069;-66
2022/04/26 10:22:43;;;;;;;10.40;5.22;;;;;;;;;;4982309;28;20514;-66
2022/04/26 10:25:13;;;;;;;22.17;6.07;;;;;;;;;;4979701;28;20109;-66
2022/04/26 10:27:40;;;;;;;14.35;5.90;;;;;;;;;;4975748;28;20057;-66
2022/04/26 10:30:06;;;;;;;14.32;6.13;;;;;;;;;;4974285;28;20075;-66
2022/04/26 10:32:34;;;;;;;19.60;7.07;;;;;;;;;;4979692;28;20431;-66
2022/04/26 10:35:39;;;;;;;14.43;6.55;;;;;;;;;;4980582;28;20022;-66
2022/04/26 10:38:07;;;;;;;15.18;7.10;;;;;;;;;;5043881;28;20028;-66
2022/04/26 10:40:53;;;;;;;9.93;5.32;;;;;;;;;;5037564;28;20431;-66
2022/04/26 10:43:20;;;;;;;7.35;4.40;;;;;;;;;;5037817;28;20049;-66
2022/04/26 10:46:04;;;;;;;10.48;5.30;;;;;;;;;;5044682;28;20041;-66
2022/04/26 10:48:30;;;;;;;15.15;5.63;;;;;;;;;;5039262;28;20029;-66
2022/04/26 10:50:56;;;;;;;10.63;5.80;;;;;;;;;;5037552;28;20028;-66
2022/04/26 10:53:45;;;;;;;13.88;6.05;;;;;;;;;;5041337;28;20029;-66
2022/04/26 10:56:11;;;;;;;14.27;7.07;;;;;;;;;;5038622;28;20134;-66
2022/04/26 10:58:37;;;;;;;18.63;7.15;;;;;;;;;;5041616;28;20040;-66
2022/04/26 11:01:04;;;;;;;17.13;6.75;;;;;;;;;;5036882;28;20463;-66
2022/04/26 11:03:30;;;;;;;24.83;7.45;;;;;;;;;;5038292;28;20042;-66
2022/04/26 11:05:56;;;;;;;18.02;7.03;;;;;;;;;;5038536;28;20036;-66
2022/04/26 11:08:22;;;;;;;17.23;7.80;;;;;;;;;;5017656;28;20125;-66
2022/04/26 11:11:00;;;;;;;18.23;7.30;;;;;;;;;;4977422;28;20023;-66
2022/04/26 11:13:35;;;;;;;18.17;7.30;;;;;;;;;;4970471;28;20334;-66
2022/04/26 11:16:08;;;;;;;16.33;8.80;;;;;;;;;;4974734;28;20031;-66
2022/04/26 11:18:34;;;;;;;18.02;8.25;;;;;;;;;;4975378;28;20092;-66
2022/04/26 11:21:00;;;;;;;19.13;8.30;;;;;;;;;;4978273;28;20049;-66
2022/04/26 11:29:22;;;;;;;23.35;8.18;;;;;;;;;;4983501;28;20882;-66
2022/04/26 11:31:48;;;;;;;17.60;8.57;;;;;;;;;;4982825;28;20129;-66
2022/04/26 11:34:14;;;;;;;26.48;9.68;;;;;;;;;;4980736;28;20519;-67
2022/04/26 11:36:41;;;;;;;22.80;9.57;;;;;;;;;;4979605;28;20065;-66
2022/04/26 11:39:07;;;;;;;22.38;8.60;;;;;;;;;;5006723;28;20030;-66
2022/04/26 11:41:33;;;;;;;23.48;8.82;;;;;;;;;;4980159;28;20469;-66
2022/04/26 11:44:06;;;;;;;23.63;8.35;;;;;;;;;;4979472;28;20031;-66
2022/04/26 11:46:32;;;;;;;22.65;9.15;;;;;;;;;;4972232;28;20512;-66
2022/04/26 11:48:59;;;;;;;17.85;8.55;;;;;;;;;;4983220;28;20034;-66
2022/04/26 11:51:26;;;;;;;18.00;8.32;;;;;;;;;;4972294;28;20027;-66
2022/04/26 11:53:53;;;;;;;21.35;8.43;;;;;;;;;;4984815;28;20022;-66
2022/04/26 11:56:21;;;;;;;21.92;9.10;;;;;;;;;;4987845;28;20042;-66
2022/04/26 11:58:47;;;;;;;19.13;8.05;;;;;;;;;;4986166;28;20046;-66
2022/04/26 12:01:15;;;;;;;19.80;7.85;;;;;;;;;;4981436;28;20023;-66
2022/04/26 12:03:48;;;;;;;21.90;7.60;;;;;;;;;;4977392;28;20502;-66
2022/04/26 12:06:19;;;;;;;16.63;7.38;;;;;;;;;;4980396;28;20507;-66
2022/04/26 12:08:49;;;;;;;19.52;8.82;;;;;;;;;;4977461;28;20492;-66
2022/04/26 12:11:15;;;;;;;13.80;7.32;;;;;;;;;;4975615;28;20027;-66
2022/04/26 12:13:42;;;;;;;18.15;8.23;;;;;;;;;;4978867;28;20030;-66
2022/04/26 12:16:15;;;;;;;16.63;7.85;;;;;;;;;;4980060;28;20106;-66
2022/04/26 12:18:55;;;;;;;18.48;7.82;;;;;;;;;;4977017;28;20572;-66
2022/04/26 12:21:22;;;;;;;19.75;8.00;;;;;;;;;;4978260;28;20115;-66
2022/04/26 12:23:49;;;;;;;24.45;8.73;;;;;;;;;;4980072;28;20026;-66
2022/04/26 12:26:15;;;;;;;18.45;8.65;;;;;;;;;;4980174;28;20030;-66
2022/04/26 12:28:48;;;;;;;27.55;10.20;;;;;;;;;;4980350;28;20049;-66
2022/04/26 12:31:40;;;;;;;19.77;8.98;;;;;;;;;;4980706;28;20030;-66
2022/04/26 12:34:12;;;;;;;15.60;8.63;;;;;;;;;;4979551;28;20053;-66
2022/04/26 12:36:51;;;;;;;18.35;9.40;;;;;;;;;;4979902;28;20265;-66
2022/04/26 12:39:18;;;;;;;25.73;10.70;;;;;;;;;;4979858;28;20045;-66
2022/04/26 12:41:51;;;;;;;18.40;8.77;;;;;;;;;;4977273;28;20111;-66
2022/04/26 12:44:17;;;;;;;18.75;7.93;;;;;;;;;;4975493;28;20044;-66
2022/04/26 12:46:46;;;;;;;20.13;8.43;;;;;;;;;;4985035;28;20034;-66
2022/04/26 12:51:57;;;;;;;28.55;10.55;;;;;;;;;;4975306;28;20042;-66
2022/04/26 12:54:24;;;;;;;23.80;9.02;;;;;;;;;;4976873;28;20076;-66
2022/04/26 12:57:00;;;;;;;24.30;9.88;;;;;;;;;;4976786;28;20050;-66
2022/04/26 12:59:34;;;;;;;20.80;9.90;;;;;;;;;;4977600;28;20046;-66
2022/04/26 13:02:01;;;;;;;19.80;8.75;;;;;;;;;;4978063;28;20079;-66
2022/04/26 13:04:27;;;;;;;24.67;9.60;;;;;;;;;;4981915;28;20037;-66
2022/04/26 13:06:53;;;;;;;24.88;9.45;;;;;;;;;;5018450;28;20045;-66
2022/04/26 13:09:19;;;;;;;16.55;9.90;;;;;;;;;;5000502;28;20484;-66
2022/04/26 13:11:45;;;;;;;23.13;10.55;;;;;;;;;;5017902;28;20028;-66
2022/04/26 13:14:11;;;;;;;17.90;9.90;;;;;;;;;;4972275;28;20481;-66
2022/04/26 13:16:37;;;;;;;24.65;10.80;;;;;;;;;;4984566;28;20042;-66
2022/04/26 13:19:03;;;;;;;26.25;10.65;;;;;;;;;;4976321;28;20030;-66
2022/04/26 13:21:30;;;;;;;18.73;9.57;;;;;;;;;;4972287;28;20076;-66
2022/04/26 13:23:57;;;;;;;19.33;8.57;;;;;;;;;;4979751;28;20023;-66
2022/04/26 13:26:23;;;;;;;19.75;8.32;;;;;;;;;;4978564;28;20027;-66
2022/04/26 13:28:49;;;;;;;20.58;9.13;;;;;;;;;;4979879;28;20095;-66
2022/04/26 13:31:16;;;;;;;17.75;10.50;;;;;;;;;;4982728;28;20075;-66
2022/04/26 13:33:45;;;;;;;28.70;10.23;;;;;;;;;;4977700;28;20030;-66
2022/04/26 13:36:11;;;;;;;22.15;9.77;;;;;;;;;;4978854;28;20130;-66
2022/04/26 13:38:38;;;;;;;22.27;9.48;;;;;;;;;;4981832;28;20103;-66
2022/04/26 13:41:04;;;;;;;19.77;10.57;;;;;;;;;;4977334;28;20165;-66
2022/04/26 13:43:30;;;;;;;19.23;9.50;;;;;;;;;;4980066;28;20361;-65
2022/04/26 13:45:56;;;;;;;19.73;9.75;;;;;;;;;;4980006;28;20458;-65
2022/04/26 13:48:22;;;;;;;22.67;10.20;;;;;;;;;;4977414;28;20035;-66
2022/04/26 13:50:48;;;;;;;15.93;9.23;;;;;;;;;;4982350;28;20042;-66
2022/04/26 13:53:15;;;;;;;17.98;9.20;;;;;;;;;;4972773;28;20015;-66
2022/04/26 13:55:41;;;;;;;27.98;10.13;;;;;;;;;;4982472;28;20484;-65
2022/04/26 13:58:09;;;;;;;19.05;9.55;;;;;;;;;;4984514;28;20056;-67
2022/04/26 14:00:36;;;;;;;21.00;10.43;;;;;;;;;;4978909;28;20031;-67
2022/04/26 14:03:03;;;;;;;23.25;10.43;;;;;;;;;;4979552;28;20019;-67
2022/04/26 14:05:29;;;;;;;22.05;9.93;;;;;;;;;;4980642;28;20018;-67
2022/04/26 14:07:55;;;;;;;17.02;9.40;;;;;;;;;;4982698;28;20030;-66
2022/04/26 14:10:21;;;;;;;17.13;8.40;;;;;;;;;;4981856;28;20101;-66
2022/04/26 14:12:47;;;;;;;31.73;10.80;;;;;;;;;;4985239;28;20373;-66
2022/04/26 14:23:30;;;;;;;19.05;8.68;;;;;;;;;;4990335;28;20503;-66
2022/04/26 14:25:56;;;;;;;19.23;8.95;;;;;;;;;;4975698;28;20097;-66
2022/04/26 14:28:22;;;;;;;19.08;9.35;;;;;;;;;;4977192;28;20031;-66
2022/04/26 14:30:48;;;;;;;20.20;9.15;;;;;;;;;;4983692;28;20452;-66
2022/04/26 14:33:15;;;;;;;21.40;9.40;;;;;;;;;;4982636;28;20022;-67
2022/04/26 14:35:41;;;;;;;19.25;9.88;;;;;;;;;;4977400;28;20023;-67
2022/04/26 14:38:10;;;;;;;22.13;9.30;;;;;;;;;;4977062;28;20488;-67
2022/04/26 14:40:37;;;;;;;20.90;9.02;;;;;;;;;;4976176;28;20023;-66
2022/04/26 14:43:04;;;;;;;19.63;9.23;;;;;;;;;;4973486;28;20141;-66
2022/04/26 14:45:32;;;;;;;26.65;10.88;;;;;;;;;;4976670;28;20022;-67
2022/04/26 14:48:00;;;;;;;17.33;9.27;;;;;;;;;;4985224;28;20667;-67
2022/04/26 14:50:27;;;;;;;15.60;9.15;;;;;;;;;;4981687;28;20438;-67
2022/04/26 14:52:53;;;;;;;19.02;9.95;;;;;;;;;;4973652;28;20418;-67
2022/04/26 14:55:20;;;;;;;16.10;8.55;;;;;;;;;;4974344;28;20236;-67
2022/04/26 14:57:46;;;;;;;27.83;10.55;;;;;;;;;;4975881;28;20054;-66
2022/04/26 15:00:12;;;;;;;14.57;9.10;;;;;;;;;;4977867;28;20073;-67
2022/04/26 15:02:38;;;;;;;18.38;9.10;;;;;;;;;;4977490;28;20066;-67
2022/04/26 15:05:07;;;;;;;18.88;9.68;;;;;;;;;;4973643;28;20027;-67
2022/04/26 15:09:42;;;;;;;17.55;8.98;;;;;;;;;;4983443;28;20046;-67
2022/04/26 15:10:19;;;;;;;27.10;10.43;;;;;;;;;;4979172;28;20042;-67
2022/04/26 15:18:17;;;;;;;23.48;10.70;;;;;;;;;;4978274;28;20443;-67
2022/04/26 15:20:48;;;;;;;28.80;10.40;;;;;;;;;;4981344;28;20107;-67
2022/04/26 15:23:15;;;;;;;20.35;9.30;;;;;;;;;;4980291;28;20114;-67
2022/04/26 15:25:41;;;;;;;20.67;9.15;;;;;;;;;;4983023;28;20041;-67
2022/04/26 15:28:09;;;;;;;17.50;9.00;;;;;;;;;;4974866;28;20025;-67
2022/04/26 15:30:41;;;;;;;19.20;9.30;;;;;;;;;;4972761;28;20034;-66
2022/04/26 15:33:08;;;;;;;17.35;8.40;;;;;;;;;;4980656;28;20027;-67
2022/04/26 15:35:34;;;;;;;27.20;9.38;;;;;;;;;;4984294;28;20029;-67
2022/04/26 15:38:00;;;;;;;15.05;8.85;;;;;;;;;;4978436;28;20046;-67
2022/04/26 15:40:26;;;;;;;23.10;8.80;;;;;;;;;;4981264;28;20396;-67
2022/04/26 15:42:52;;;;;;;22.95;9.43;;;;;;;;;;4977793;28;20042;-67
2022/04/26 15:45:18;;;;;;;19.25;8.30;;;;;;;;;;4981377;28;20027;-67
2022/04/26 15:47:44;;;;;;;21.35;9.00;;;;;;;;;;4977884;28;20053;-67
2022/04/26 15:50:10;;;;;;;17.45;8.60;;;;;;;;;;4979447;28;20022;-67
2022/04/26 15:52:38;;;;;;;21.48;8.88;;;;;;;;;;4985921;28;20054;-67
2022/04/26 15:55:04;;;;;;;19.55;8.52;;;;;;;;;;4973659;28;20048;-67
2022/04/26 15:57:31;;;;;;;22.98;8.77;;;;;;;;;;4974829;28;20035;-67
2022/04/26 15:59:57;;;;;;;18.77;8.32;;;;;;;;;;4975347;28;20037;-67
2022/04/26 16:02:23;;;;;;;24.52;8.30;;;;;;;;;;4983707;28;20091;-67
2022/04/26 16:04:50;;;;;;;19.95;7.90;;;;;;;;;;4978311;28;20073;-67
2022/04/26 16:07:17;;;;;;;19.73;9.20;;;;;;;;;;4975632;28;20033;-67
2022/04/26 16:20:44;;;;;;;21.33;8.93;;;;;;;;;;4978598;28;20050;-67
2022/04/26 16:23:10;;;;;;;19.65;8.73;;;;;;;;;;4987205;28;20092;-67
2022/04/26 16:25:36;;;;;;;17.80;9.45;;;;;;;;;;4981680;28;20026;-67
2022/04/26 16:28:03;;;;;;;20.77;8.30;;;;;;;;;;4976441;28;20491;-67
2022/04/26 16:30:30;;;;;;;16.38;8.07;;;;;;;;;;4977243;28;20722;-67
2022/04/26 16:32:57;;;;;;;17.77;7.30;;;;;;;;;;4975556;28;20035;-67
2022/04/26 16:35:24;;;;;;;15.07;8.50;;;;;;;;;;4972297;28;20105;-67
2022/04/26 16:37:51;;;;;;;17.42;8.25;;;;;;;;;;4973155;28;20026;-67
2022/04/26 16:40:17;;;;;;;20.23;8.57;;;;;;;;;;4973900;28;21334;-67
2022/04/26 16:42:43;;;;;;;16.63;8.02;;;;;;;;;;4977093;28;20026;-67
2022/04/26 16:45:09;;;;;;;19.98;7.72;;;;;;;;;;4975522;28;20104;-67
2022/04/26 16:47:36;;;;;;;18.73;7.85;;;;;;;;;;4978762;28;20433;-67
2022/04/26 16:50:04;;;;;;;20.00;8.10;;;;;;;;;;4977857;28;20030;-66
2022/04/26 16:52:31;;;;;;;18.38;8.43;;;;;;;;;;4975624;28;20031;-68
2022/04/26 16:54:57;;;;;;;18.85;7.88;;;;;;;;;;4973619;28;20038;-67
2022/04/26 16:57:26;;;;;;;18.20;8.65;;;;;;;;;;4972599;28;20062;-67
2022/04/26 16:59:53;;;;;;;23.30;8.52;;;;;;;;;;4981319;28;20104;-67
2022/04/26 17:02:19;;;;;;;16.20;8.13;;;;;;;;;;4988666;28;20399;-67
2022/04/26 17:04:45;;;;;;;15.85;8.10;;;;;;;;;;4988562;28;20029;-66
2022/04/26 17:07:12;;;;;;;12.75;7.40;;;;;;;;;;4976646;28;20079;-67
2022/04/26 17:09:38;;;;;;;17.58;7.07;;;;;;;;;;4986986;28;20054;-67
2022/04/26 17:12:05;;;;;;;18.02;6.90;;;;;;;;;;4983132;28;20019;-67
2022/04/26 17:14:32;;;;;;;17.00;7.20;;;;;;;;;;4969647;28;20377;-67
2022/04/26 17:16:58;;;;;;;18.65;6.57;;;;;;;;;;4974502;28;20085;-67
2022/04/26 17:19:24;;;;;;;13.90;6.50;;;;;;;;;;4980629;28;20076;-67
2022/04/26 17:21:51;;;;;;;14.40;6.05;;;;;;;;;;4970604;28;20488;-67
2022/04/26 17:27:02;;;;;;;19.52;6.57;;;;;;;;;;4973725;28;20038;-67
2022/04/26 17:29:28;;;;;;;21.17;6.70;;;;;;;;;;5005219;28;20088;-66
2022/04/26 17:31:55;;;;;;;14.45;6.65;;;;;;;;;;4973299;28;20030;-66
2022/04/26 17:34:21;;;;;;;18.58;6.88;;;;;;;;;;4970600;28;20027;-66
2022/04/26 17:36:48;;;;;;;14.18;5.57;;;;;;;;;;4993477;28;20023;-66
2022/04/26 17:39:14;;;;;;;12.13;5.97;;;;;;;;;;4977770;28;20023;-66
2022/04/26 17:41:40;;;;;;;14.07;6.05;;;;;;;;;;4972445;28;20042;-66
2022/04/26 17:44:07;;;;;;;15.23;5.55;;;;;;;;;;4981564;28;20111;-66
2022/04/26 17:46:33;;;;;;;15.75;5.95;;;;;;;;;;4978889;28;20030;-66
2022/04/26 17:48:59;;;;;;;15.77;5.80;;;;;;;;;;4976658;28;20039;-66
2022/04/26 17:51:25;;;;;;;12.45;5.20;;;;;;;;;;4971417;28;20062;-66
2022/04/26 17:56:39;;;;;;;15.52;4.68;;;;;;;;;;4983138;28;20491;-67
2022/04/26 17:59:06;;;;;;;11.57;5.00;;;;;;;;;;4975096;28;20062;-67
2022/04/26 18:01:34;;;;;;;16.67;5.57;;;;;;;;;;4984511;28;20034;-66
2022/04/26 18:04:01;;;;;;;16.88;5.20;;;;;;;;;;4973777;28;20023;-66
2022/04/26 18:06:27;;;;;;;15.15;4.70;;;;;;;;;;4977111;28;20026;-66
2022/04/26 18:08:53;;;;;;;17.05;5.15;;;;;;;;;;4981686;28;20640;-67
2022/04/26 18:11:19;;;;;;;14.27;5.38;;;;;;;;;;4972622;28;20837;-66
2022/04/26 18:13:48;;;;;;;16.85;4.40;;;;;;;;;;4977794;28;20573;-67
2022/04/26 18:16:14;;;;;;;13.82;5.13;;;;;;;;;;4987683;28;20027;-67
2022/04/26 18:18:40;;;;;;;15.55;4.57;;;;;;;;;;4973970;28;20042;-66
2022/04/26 18:21:06;;;;;;;11.85;4.45;;;;;;;;;;4978567;28;20060;-67
2022/04/26 18:23:33;;;;;;;10.65;3.88;;;;;;;;;;4981529;28;20106;-67
2022/04/26 18:26:11;;;;;;;10.88;4.03;;;;;;;;;;4983757;28;20026;-67
2022/04/26 18:28:39;;;;;;;8.27;4.20;;;;;;;;;;4977297;28;20043;-67
2022/04/26 18:31:05;;;;;;;14.45;4.35;;;;;;;;;;4977964;28;20031;-67
2022/04/26 18:33:31;;;;;;;11.98;4.85;;;;;;;;;;4976716;28;20027;-67
2022/04/26 18:35:57;;;;;;;10.55;4.25;;;;;;;;;;4996885;28;20116;-66
2022/04/26 18:38:24;;;;;;;12.68;4.95;;;;;;;;;;5000888;28;20034;-67
2022/04/26 18:40:51;;;;;;;17.85;3.95;;;;;;;;;;4980392;28;20033;-67
2022/04/26 18:43:18;;;;;;;11.85;3.97;;;;;;;;;;4968657;28;20384;-67
2022/04/26 18:45:44;;;;;;;10.20;4.10;;;;;;;;;;4975424;28;20026;-66
2022/04/26 18:48:10;;;;;;;11.63;4.15;;;;;;;;;;4974098;28;20121;-67
2022/04/26 18:50:36;;;;;;;7.72;3.80;;;;;;;;;;4972391;28;20041;-67
2022/04/26 18:53:03;;;;;;;11.68;4.55;;;;;;;;;;4984595;28;20047;-67
2022/04/26 18:55:29;;;;;;;12.45;4.03;;;;;;;;;;4983938;28;20107;-67
2022/04/26 18:57:55;;;;;;;10.02;4.82;;;;;;;;;;4974684;28;20493;-67